createdAt,value
2023-08-12T00:02:19.603Z,100793.59
2023-08-12T00:04:49.253Z,100793.59
2023-08-12T00:07:17.550Z,100794.97
2023-08-12T00:09:45.565Z,100795.81
2023-08-12T00:12:13.842Z,100787.88
2023-08-12T00:14:41.827Z,100798.72
2023-08-12T00:17:10.154Z,100789.91
2023-08-12T00:19:38.680Z,100777.38
2023-08-12T00:22:08.343Z,100784.81
2023-08-12T00:24:36.591Z,100782.28
2023-08-12T00:27:05.005Z,100781.94
2023-08-12T00:29:33.052Z,100787.19
2023-08-12T00:32:01.181Z,100780.59
2023-08-12T00:34:29.659Z,100782.63
2023-08-12T00:36:57.724Z,100780.44
2023-08-12T00:39:27.450Z,100774.31
2023-08-12T00:41:55.924Z,100781.12
2023-08-12T00:44:24.207Z,100777.56
2023-08-12T00:46:52.861Z,100768.22
2023-08-12T00:49:21.264Z,100763.84
2023-08-12T00:51:51.571Z,100753.66
2023-08-12T00:54:23.588Z,100745.91
2023-08-12T00:56:54.864Z,100747.25
2023-08-12T00:59:24.236Z,100755.03
2023-08-12T01:01:52.589Z,100747.59
2023-08-12T01:04:22.496Z,100738.25
2023-08-12T01:06:52.536Z,100737.28
2023-08-12T01:09:21.388Z,100740.12
2023-08-12T01:11:55.510Z,100741.84
2023-08-12T01:14:27.913Z,100735.53
2023-08-12T01:17:00.853Z,100736.56
2023-08-12T01:19:34.822Z,100733.84
2023-08-12T01:22:05.971Z,100730.97
2023-08-12T01:24:38.461Z,100730.47
2023-08-12T01:27:07.663Z,100725.91
2023-08-12T01:29:37.188Z,100725.53
2023-08-12T01:32:13.912Z,100724.22
2023-08-12T01:34:49.678Z,100723.19
2023-08-12T01:37:25.465Z,100731.31
2023-08-12T01:39:57.176Z,100736.38
2023-08-12T01:42:26.184Z,100733.84
2023-08-12T01:44:56.607Z,100735.72
2023-08-12T01:47:26.760Z,100731.66
2023-08-12T01:49:55.219Z,100727.59
2023-08-12T01:52:25.563Z,100729.47
2023-08-12T01:54:54.972Z,100725.06
2023-08-12T01:57:23.523Z,100720.16
2023-08-12T01:59:51.983Z,100715.91
2023-08-12T02:02:19.994Z,100712.91
2023-08-12T02:04:48.918Z,100704.41
2023-08-12T02:07:16.933Z,100715.75
2023-08-12T02:09:44.908Z,100712.69
2023-08-12T02:12:15.389Z,100705.94
2023-08-12T02:14:43.406Z,100706.94
2023-08-12T02:17:11.725Z,100706.78
2023-08-12T02:19:40.260Z,100704.78
2023-08-12T02:22:08.267Z,100698.81
2023-08-12T02:24:36.273Z,100694.78
2023-08-12T02:27:04.862Z,100691.41
2023-08-12T02:29:34.276Z,100694.44
2023-08-12T02:32:02.468Z,100688.34
2023-08-12T02:34:30.758Z,100682.44
2023-08-12T02:36:58.747Z,100680.75
2023-08-12T02:39:26.755Z,100676.66
2023-08-12T02:41:55.116Z,100673.78
2023-08-12T02:44:26.001Z,100670.06
2023-08-12T02:46:55.597Z,100668.38
2023-08-12T02:49:23.739Z,100668.06
2023-08-12T02:51:51.939Z,100664.50
2023-08-12T02:54:20.287Z,100670.94
2023-08-12T02:56:48.553Z,100664.97
2023-08-12T02:59:16.634Z,100652.81
2023-08-12T03:01:45.065Z,100651.97
2023-08-12T03:04:14.564Z,100655.84
2023-08-12T03:06:42.684Z,100649.44
2023-08-12T03:09:10.943Z,100655.34
2023-08-12T03:11:39.010Z,100644.69
2023-08-12T03:14:08.378Z,100652.31
2023-08-12T03:16:36.799Z,100637.25
2023-08-12T03:19:05.247Z,100641.31
2023-08-12T03:21:35.587Z,100637.25
2023-08-12T03:24:03.985Z,100628.13
2023-08-12T03:26:32.121Z,100637.09
2023-08-12T03:29:00.450Z,100633.53
2023-08-12T03:31:29.092Z,100635.88
2023-08-12T03:33:57.192Z,100638.94
2023-08-12T03:36:25.393Z,100639.78
2023-08-12T03:38:55.008Z,100638.41
2023-08-12T03:41:24.074Z,100635.22
2023-08-12T03:43:52.735Z,100643.66
2023-08-12T03:46:21.178Z,100637.94
2023-08-12T03:48:49.591Z,100638.78
2023-08-12T03:51:17.677Z,100640.47
2023-08-12T03:53:46.014Z,100632.50
2023-08-12T03:56:17.420Z,100633.19
2023-08-12T03:58:46.146Z,100629.63
2023-08-12T04:01:14.280Z,100630.47
2023-08-12T04:03:42.601Z,100624.69
2023-08-12T04:06:10.876Z,100630.59
2023-08-12T04:08:39.039Z,100620.47
2023-08-12T04:11:07.477Z,100623.00
2023-08-12T04:13:36.959Z,100628.25
2023-08-12T04:16:05.430Z,100630.94
2023-08-12T04:18:33.685Z,100625.69
2023-08-12T04:21:02.499Z,100632.63
2023-08-12T04:23:30.530Z,100631.44
2023-08-12T04:25:59.173Z,100622.97
2023-08-12T04:28:27.661Z,100629.75
2023-08-12T04:30:58.740Z,100627.22
2023-08-12T04:33:27.989Z,100626.00
2023-08-12T04:35:56.213Z,100626.50
2023-08-12T04:38:24.976Z,100623.28
2023-08-12T04:40:55.168Z,100622.56
2023-08-12T04:43:23.556Z,100622.34
2023-08-12T04:45:51.584Z,100621.47
2023-08-12T04:48:21.390Z,100622.28
2023-08-12T04:50:49.608Z,100617.81
2023-08-12T04:53:18.880Z,100615.94
2023-08-12T04:55:47.638Z,100615.06
2023-08-12T04:58:16.328Z,100619.09
2023-08-12T05:00:44.465Z,100628.53
2023-08-12T05:03:13.536Z,100627.28
2023-08-12T05:05:42.889Z,100632.75
2023-08-12T05:08:11.184Z,100625.59
2023-08-12T05:10:39.973Z,100628.44
2023-08-12T05:13:08.032Z,100629.59
2023-08-12T05:15:37.896Z,100629.72
2023-08-12T05:18:07.404Z,100624.56
2023-08-12T05:20:35.559Z,100623.84
2023-08-12T05:23:05.270Z,100621.22
2023-08-12T05:25:33.529Z,100625.38
2023-08-12T05:28:01.583Z,100622.94
2023-08-12T05:30:29.746Z,100619.94
2023-08-12T05:32:58.556Z,100627.81
2023-08-12T05:35:27.026Z,100620.84
2023-08-12T05:37:55.147Z,100621.88
2023-08-12T05:40:24.772Z,100621.88
2023-08-12T05:42:53.276Z,100624.88
2023-08-12T05:45:21.261Z,100620.91
2023-08-12T05:47:49.637Z,100617.81
2023-08-12T05:50:17.796Z,100611.16
2023-08-12T05:52:46.198Z,100608.62
2023-08-12T05:55:14.592Z,100609.66
2023-08-12T05:57:43.995Z,100612.66
2023-08-12T06:00:13.184Z,100621.34
2023-08-12T06:02:42.524Z,100606.50
2023-08-12T06:05:11.271Z,100610.94
2023-08-12T06:07:41.576Z,100603.09
2023-08-12T06:10:10.738Z,100601.34
2023-08-12T06:12:38.728Z,100604.50
2023-08-12T06:15:09.111Z,100606.94
2023-08-12T06:17:37.395Z,100616.00
2023-08-12T06:20:06.245Z,100616.28
2023-08-12T06:22:34.226Z,100614.13
2023-08-12T06:25:02.721Z,100607.78
2023-08-12T06:27:30.777Z,100607.97
2023-08-12T06:29:58.904Z,100609.09
2023-08-12T06:32:28.528Z,100599.81
2023-08-12T06:34:56.703Z,100603.88
2023-08-12T06:37:24.772Z,100606.94
2023-08-12T06:39:53.038Z,100608.75
2023-08-12T06:42:21.890Z,100605.50
2023-08-12T06:44:56.862Z,100609.53
2023-08-12T06:47:26.931Z,100607.34
2023-08-12T06:49:56.708Z,100604.06
2023-08-12T06:52:24.998Z,100606.37
2023-08-12T06:54:53.402Z,100602.41
2023-08-12T06:57:21.415Z,100603.69
2023-08-12T06:59:49.789Z,100607.47
2023-08-12T07:02:17.889Z,100606.69
2023-08-12T07:04:45.969Z,100597.00
2023-08-12T07:07:16.578Z,100601.22
2023-08-12T07:09:44.669Z,100597.84
2023-08-12T07:12:13.847Z,100582.03
2023-08-12T07:14:44.552Z,100572.22
2023-08-12T07:17:12.524Z,100574.53
2023-08-12T07:19:40.739Z,100575.59
2023-08-12T07:22:09.421Z,100569.28
2023-08-12T07:24:39.145Z,100580.22
2023-08-12T07:27:08.098Z,100590.31
2023-08-12T07:29:36.478Z,100594.97
2023-08-12T07:32:05.069Z,100597.84
2023-08-12T07:34:33.115Z,100593.63
2023-08-12T07:37:03.539Z,100595.34
2023-08-12T07:39:31.785Z,100593.03
2023-08-12T07:42:01.092Z,100590.88
2023-08-12T07:44:29.450Z,100588.94
2023-08-12T07:46:57.506Z,100591.91
2023-08-12T07:49:25.555Z,100586.44
2023-08-12T07:51:53.746Z,100598.22
2023-08-12T07:54:21.719Z,100615.28
2023-08-12T07:56:49.719Z,100615.28
2023-08-12T07:59:19.301Z,100605.44
2023-08-12T08:01:47.451Z,100609.22
2023-08-12T08:04:15.775Z,100612.16
2023-08-12T08:06:43.753Z,100622.69
2023-08-12T08:09:11.761Z,100622.25
2023-08-12T08:11:40.118Z,100625.81
2023-08-12T08:14:08.277Z,100626.44
2023-08-12T08:16:38.977Z,100619.50
2023-08-12T08:19:10.235Z,100627.47
2023-08-12T08:21:40.735Z,100616.34
2023-08-12T08:24:12.396Z,100599.97
2023-08-12T08:26:41.600Z,100591.34
2023-08-12T08:29:09.993Z,100596.81
2023-08-12T08:31:39.458Z,100601.88
2023-08-12T08:34:08.551Z,100612.16
2023-08-12T08:36:36.941Z,100617.41
2023-08-12T08:39:05.651Z,100615.34
2023-08-12T08:41:34.353Z,100616.19
2023-08-12T08:44:05.244Z,100607.94
2023-08-12T08:46:33.528Z,100601.66
2023-08-12T08:49:02.989Z,100606.28
2023-08-12T08:51:32.873Z,100610.91
2023-08-12T08:54:03.761Z,100605.19
2023-08-12T08:56:34.164Z,100606.22
2023-08-12T08:59:06.189Z,100604.50
2023-08-12T09:01:34.522Z,100613.34
2023-08-12T09:04:05.815Z,100609.31
2023-08-12T09:06:34.372Z,100606.97
2023-08-12T09:09:04.084Z,100602.69
2023-08-12T09:11:32.582Z,100597.31
2023-08-12T09:14:00.892Z,100592.16
2023-08-12T09:16:29.759Z,100604.50
2023-08-12T09:18:58.296Z,100604.44
2023-08-12T09:21:27.733Z,100606.44
2023-08-12T09:23:57.142Z,100609.38
2023-08-12T09:26:25.350Z,100621.41
2023-08-12T09:28:55.258Z,100612.72
2023-08-12T09:31:26.465Z,100612.25
2023-08-12T09:33:55.077Z,100603.75
2023-08-12T09:36:24.304Z,100602.56
2023-08-12T09:38:53.719Z,100593.66
2023-08-12T09:41:24.196Z,100599.72
2023-08-12T09:43:54.396Z,100596.34
2023-08-12T09:46:24.187Z,100594.78
2023-08-12T09:48:53.611Z,100598.88
2023-08-12T09:51:22.508Z,100594.41
2023-08-12T09:53:51.313Z,100599.59
2023-08-12T09:56:24.795Z,100601.84
2023-08-12T09:58:54.676Z,100594.13
2023-08-12T10:01:23.880Z,100590.75
2023-08-12T10:03:53.074Z,100590.84
2023-08-12T10:06:22.256Z,100598.06
2023-08-12T10:08:51.268Z,100596.63
2023-08-12T10:11:21.428Z,100600.25
2023-08-12T10:13:50.036Z,100594.38
2023-08-12T10:16:22.096Z,100593.53
2023-08-12T10:18:52.121Z,100590.16
2023-08-12T10:21:20.541Z,100590.56
2023-08-12T10:23:49.406Z,100577.09
2023-08-12T10:26:19.576Z,100573.53
2023-08-12T10:28:52.956Z,100559.81
2023-08-12T10:31:24.245Z,100576.31
2023-08-12T10:33:52.352Z,100570.03
2023-08-12T10:36:21.114Z,100554.53
2023-08-12T10:38:49.409Z,100545.81
2023-08-12T10:41:19.222Z,100537.78
2023-08-12T10:44:02.257Z,100522.03
2023-08-12T10:46:32.773Z,100523.78
2023-08-12T10:49:04.564Z,100538.59
2023-08-12T10:51:43.765Z,100538.47
2023-08-12T10:54:27.803Z,100535.59
2023-08-12T10:57:14.711Z,100539.22
2023-08-12T10:59:56.900Z,100530.09
2023-08-12T11:02:30.043Z,100535.50
2023-08-12T11:05:06.309Z,100532.69
2023-08-12T11:07:36.497Z,100529.69
2023-08-12T11:10:13.132Z,100527.91
2023-08-12T11:12:43.491Z,100532.34
2023-08-12T11:15:13.497Z,100529.94
2023-08-12T11:17:43.069Z,100525.91
2023-08-12T11:20:13.346Z,100516.94
2023-08-12T11:22:43.199Z,100515.97
2023-08-12T11:25:12.874Z,100502.44
2023-08-12T11:27:45.476Z,100496.88
2023-08-12T11:30:16.769Z,100493.00
2023-08-12T11:32:46.114Z,100484.59
2023-08-12T11:35:16.639Z,100474.16
2023-08-12T11:37:46.557Z,100464.88
2023-08-12T11:40:18.977Z,100460.53
2023-08-12T11:42:48.514Z,100465.38
2023-08-12T11:45:20.473Z,100464.56
2023-08-12T11:47:53.740Z,100462.47
2023-08-12T11:50:24.458Z,100469.00
2023-08-12T11:52:54.132Z,100461.69
2023-08-12T11:55:23.454Z,100449.72
2023-08-12T11:57:52.868Z,100446.66
2023-08-12T12:00:24.793Z,100454.06
2023-08-12T12:02:54.952Z,100442.59
2023-08-12T12:05:25.193Z,100443.94
2023-08-12T12:07:54.731Z,100434.69
2023-08-12T12:10:30.087Z,100429.25
2023-08-12T12:13:02.717Z,100431.78
2023-08-12T12:15:32.851Z,100414.31
2023-08-12T12:18:01.106Z,100415.41
2023-08-12T12:20:30.575Z,100411.22
2023-08-12T12:22:58.878Z,100417.41
2023-08-12T12:25:27.334Z,100421.75
2023-08-12T12:27:56.291Z,100412.28
2023-08-12T12:30:24.376Z,100402.75
2023-08-12T12:32:53.780Z,100407.50
2023-08-12T12:35:22.088Z,100401.06
2023-08-12T12:37:50.143Z,100404.69
2023-08-12T12:40:18.445Z,100396.84
2023-08-12T12:42:47.086Z,100407.59
2023-08-12T12:45:15.438Z,100401.75
2023-08-12T12:47:43.520Z,100398.28
2023-08-12T12:50:13.353Z,100397.84
2023-08-12T12:52:43.857Z,100402.31
2023-08-12T12:55:13.275Z,100404.28
2023-08-12T12:57:41.335Z,100387.97
2023-08-12T13:00:12.852Z,100390.47
2023-08-12T13:02:43.936Z,100387.69
2023-08-12T13:05:13.387Z,100388.78
2023-08-12T13:07:41.793Z,100389.34
2023-08-12T13:10:10.955Z,100387.03
2023-08-12T13:12:38.887Z,100386.44
2023-08-12T13:15:08.125Z,100383.66
2023-08-12T13:17:36.268Z,100379.19
2023-08-12T13:20:05.041Z,100385.94
2023-08-12T13:22:35.343Z,100372.72
2023-08-12T13:25:03.383Z,100379.13
2023-08-12T13:27:32.058Z,100374.69
2023-08-12T13:30:00.264Z,100378.84
2023-08-12T13:32:28.315Z,100380.44
2023-08-12T13:34:56.363Z,100375.94
2023-08-12T13:37:24.705Z,100377.62
2023-08-12T13:39:54.413Z,100376.50
2023-08-12T13:42:22.519Z,100369.88
2023-08-12T13:44:50.784Z,100377.38
2023-08-12T13:47:18.797Z,100375.16
2023-08-12T13:49:46.844Z,100374.34
2023-08-12T13:52:15.264Z,100364.41
2023-08-12T13:54:43.330Z,100372.72
2023-08-12T13:57:12.983Z,100366.34
2023-08-12T13:59:44.826Z,100368.28
2023-08-12T14:02:12.973Z,100361.38
2023-08-12T14:04:41.540Z,100363.91
2023-08-12T14:07:09.971Z,100363.34
2023-08-12T14:09:40.749Z,100373.81
2023-08-12T14:12:09.364Z,100369.63
2023-08-12T14:14:38.984Z,100369.91
2023-08-12T14:17:07.017Z,100364.34
2023-08-12T14:19:35.306Z,100373.25
2023-08-12T14:22:03.298Z,100376.25
2023-08-12T14:24:31.364Z,100374.91
2023-08-12T14:26:59.674Z,100370.69
2023-08-12T14:29:28.067Z,100366.03
2023-08-12T14:31:57.410Z,100362.69
2023-08-12T14:34:25.841Z,100366.53
2023-08-12T14:36:53.930Z,100363.78
2023-08-12T14:39:22.960Z,100362.13
2023-08-12T14:41:51.247Z,100350.41
2023-08-12T14:44:19.281Z,100350.94
2023-08-12T14:46:47.327Z,100342.59
2023-08-12T14:49:16.963Z,100352.84
2023-08-12T14:51:44.934Z,100345.41
2023-08-12T14:54:12.843Z,100343.16
2023-08-12T14:56:41.062Z,100334.88
2023-08-12T14:59:09.016Z,100336.28
2023-08-12T15:01:37.026Z,100325.75
2023-08-12T15:04:06.731Z,100320.75
2023-08-12T15:06:36.139Z,100320.16
2023-08-12T15:09:04.338Z,100317.91
2023-08-12T15:11:32.665Z,100315.94
2023-08-12T15:14:00.616Z,100319.22
2023-08-12T15:16:28.719Z,100319.13
2023-08-12T15:18:56.943Z,100308.09
2023-08-12T15:21:25.006Z,100318.59
2023-08-12T15:23:54.315Z,100314.66
2023-08-12T15:26:23.492Z,100319.31
2023-08-12T15:28:51.806Z,100305.66
2023-08-12T15:31:19.883Z,100312.16
2023-08-12T15:33:48.737Z,100311.47
2023-08-12T15:36:16.836Z,100316.22
2023-08-12T15:38:44.813Z,100311.37
2023-08-12T15:41:16.774Z,100310.03
2023-08-12T15:43:45.728Z,100316.81
2023-08-12T15:46:14.160Z,100307.25
2023-08-12T15:48:43.847Z,100316.72
2023-08-12T15:51:11.896Z,100314.94
2023-08-12T15:53:40.166Z,100321.38
2023-08-12T15:56:08.223Z,100317.81
2023-08-12T15:58:37.594Z,100325.69
2023-08-12T16:01:05.863Z,100328.75
2023-08-12T16:03:34.223Z,100348.25
2023-08-12T16:06:03.989Z,100342.78
2023-08-12T16:08:32.030Z,100331.47
2023-08-12T16:11:00.293Z,100327.06
2023-08-12T16:13:28.282Z,100348.56
2023-08-12T16:15:57.614Z,100337.44
2023-08-12T16:18:25.926Z,100337.75
2023-08-12T16:20:55.199Z,100349.78
2023-08-12T16:23:23.189Z,100357.09
2023-08-12T16:25:51.406Z,100356.56
2023-08-12T16:28:19.387Z,100360.78
2023-08-12T16:30:47.941Z,100375.09
2023-08-12T16:33:17.596Z,100363.94
2023-08-12T16:35:46.958Z,100365.47
2023-08-12T16:38:15.732Z,100379.69
2023-08-12T16:40:44.224Z,100391.59
2023-08-12T16:43:12.224Z,100388.38
2023-08-12T16:45:40.260Z,100388.50
2023-08-12T16:48:08.738Z,100392.25
2023-08-12T16:50:38.126Z,100387.56
2023-08-12T16:53:07.371Z,100394.84
2023-08-12T16:55:36.480Z,100393.72
2023-08-12T16:58:06.122Z,100385.09
2023-08-12T17:00:34.283Z,100384.97
2023-08-12T17:03:02.601Z,100384.28
2023-08-12T17:05:30.737Z,100376.28
2023-08-12T17:08:00.155Z,100384.81
2023-08-12T17:10:29.996Z,100385.66
2023-08-12T17:13:01.267Z,100377.91
2023-08-12T17:15:30.065Z,100375.81
2023-08-12T17:17:58.148Z,100371.50
2023-08-12T17:20:27.262Z,100367.84
2023-08-12T17:22:55.626Z,100365.28
2023-08-12T17:25:25.020Z,100357.81
2023-08-12T17:27:53.219Z,100351.72
2023-08-12T17:30:21.740Z,100352.37
2023-08-12T17:32:50.088Z,100355.13
2023-08-12T17:35:18.461Z,100361.63
2023-08-12T17:37:46.695Z,100362.47
2023-08-12T17:40:17.309Z,100367.09
2023-08-12T17:42:46.919Z,100376.56
2023-08-12T17:45:15.487Z,100374.94
2023-08-12T17:47:57.031Z,100365.91
2023-08-12T17:50:25.962Z,100376.25
2023-08-12T17:52:54.195Z,100380.09
2023-08-12T17:55:23.087Z,100388.81
2023-08-12T17:57:53.367Z,100392.47
2023-08-12T18:00:23.706Z,100407.50
2023-08-12T18:02:52.084Z,100404.44
2023-08-12T18:05:20.294Z,100399.34
2023-08-12T18:07:48.537Z,100404.78
2023-08-12T18:10:17.742Z,100411.56
2023-08-12T18:12:46.453Z,100407.06
2023-08-12T18:15:16.074Z,100414.41
2023-08-12T18:17:45.898Z,100415.19
2023-08-12T18:20:16.968Z,100409.75
2023-08-12T18:22:45.327Z,100417.69
2023-08-12T18:25:13.420Z,100418.53
2023-08-12T18:27:41.508Z,100412.31
2023-08-12T18:30:10.625Z,100419.31
2023-08-12T18:32:40.089Z,100419.22
2023-08-12T18:35:08.725Z,100415.34
2023-08-12T18:37:37.344Z,100414.31
2023-08-12T18:40:06.393Z,100412.31
2023-08-12T18:42:34.409Z,100419.16
2023-08-12T18:45:02.706Z,100412.06
2023-08-12T18:47:33.064Z,100407.94
2023-08-12T18:50:03.906Z,100407.88
2023-08-12T18:52:31.996Z,100418.62
2023-08-12T18:55:00.133Z,100416.19
2023-08-12T18:57:29.037Z,100420.41
2023-08-12T18:59:57.019Z,100416.25
2023-08-12T19:02:25.794Z,100426.44
2023-08-12T19:04:54.144Z,100429.78
2023-08-12T19:07:24.157Z,100419.72
2023-08-12T19:09:52.558Z,100423.81
2023-08-12T19:12:21.086Z,100424.88
2023-08-12T19:14:49.061Z,100432.47
2023-08-12T19:17:18.043Z,100428.91
2023-08-12T19:19:47.577Z,100427.25
2023-08-12T19:22:18.092Z,100423.31
2023-08-12T19:24:47.457Z,100434.25
2023-08-12T19:27:16.157Z,100438.94
2023-08-12T19:29:44.109Z,100449.00
2023-08-12T19:32:12.327Z,100443.59
2023-08-12T19:34:41.248Z,100446.91
2023-08-12T19:37:09.556Z,100447.78
2023-08-12T19:39:37.624Z,100451.53
2023-08-12T19:42:07.532Z,100455.78
2023-08-12T19:44:35.575Z,100459.97
2023-08-12T19:47:03.629Z,100457.66
2023-08-12T19:49:33.920Z,100449.47
2023-08-12T19:52:04.324Z,100448.19
2023-08-12T19:54:32.679Z,100436.03
2023-08-12T19:57:00.660Z,100435.16
2023-08-12T19:59:30.656Z,100447.56
2023-08-12T20:01:59.077Z,100454.50
2023-08-12T20:04:27.372Z,100457.87
2023-08-12T20:06:56.484Z,100451.59
2023-08-12T20:09:26.356Z,100453.25
2023-08-12T20:11:54.903Z,100454.13
2023-08-12T20:14:23.051Z,100448.25
2023-08-12T20:16:52.748Z,100456.66
2023-08-12T20:19:21.463Z,100451.19
2023-08-12T20:21:51.493Z,100467.81
2023-08-12T20:24:19.562Z,100468.41
2023-08-12T20:26:48.061Z,100465.28
2023-08-12T20:29:16.372Z,100467.59
2023-08-12T20:31:44.772Z,100459.41
2023-08-12T20:34:14.513Z,100467.41
2023-08-12T20:36:44.307Z,100469.31
2023-08-12T20:39:13.115Z,100476.44
2023-08-12T20:41:41.092Z,100479.19
2023-08-12T20:44:09.047Z,100484.81
2023-08-12T20:46:37.638Z,100482.72
2023-08-12T20:49:05.742Z,100487.16
2023-08-12T20:51:35.457Z,100495.09
2023-08-12T20:54:04.952Z,100489.25
2023-08-12T20:56:32.925Z,100486.91
2023-08-12T20:59:00.950Z,100491.56
2023-08-12T21:01:29.319Z,100495.94
2023-08-12T21:03:57.328Z,100503.72
2023-08-12T21:06:25.382Z,100501.37
2023-08-12T21:08:55.054Z,100500.97
2023-08-12T21:11:23.035Z,100510.00
2023-08-12T21:13:51.067Z,100517.56
2023-08-12T21:16:19.596Z,100508.31
2023-08-12T21:18:47.666Z,100513.78
2023-08-12T21:21:15.686Z,100522.38
2023-08-12T21:23:44.010Z,100518.16
2023-08-12T21:26:13.279Z,100517.31
2023-08-12T21:28:41.391Z,100528.44
2023-08-12T21:31:11.115Z,100524.03
2023-08-12T21:33:39.370Z,100528.81
2023-08-12T21:36:08.344Z,100534.44
2023-08-12T21:38:36.630Z,100532.72
2023-08-12T21:41:04.651Z,100535.81
2023-08-12T21:43:33.958Z,100521.16
2023-08-12T21:46:02.263Z,100527.88
2023-08-12T21:48:30.302Z,100528.31
2023-08-12T21:50:58.238Z,100527.44
2023-08-12T21:53:26.535Z,100533.69
2023-08-12T21:55:54.538Z,100542.69
2023-08-12T21:58:22.529Z,100539.97
2023-08-12T22:00:52.063Z,100546.25
2023-08-12T22:03:20.324Z,100548.13
2023-08-12T22:05:48.311Z,100551.91
2023-08-12T22:08:16.375Z,100559.03
2023-08-12T22:10:45.506Z,100556.31
2023-08-12T22:13:13.680Z,100554.03
2023-08-12T22:15:41.724Z,100549.41
2023-08-12T22:18:11.564Z,100563.66
2023-08-12T22:20:39.732Z,100557.16
2023-08-12T22:23:07.791Z,100560.75
2023-08-12T22:25:36.111Z,100571.31
2023-08-12T22:28:05.081Z,100567.44
2023-08-12T22:30:33.393Z,100574.81
2023-08-12T22:33:01.755Z,100570.00
2023-08-12T22:35:31.135Z,100573.38
2023-08-12T22:37:59.191Z,100568.13
2023-08-12T22:40:27.455Z,100562.19
2023-08-12T22:42:55.450Z,100571.78
2023-08-12T22:45:23.440Z,100570.91
2023-08-12T22:47:51.666Z,100573.41
2023-08-12T22:50:20.185Z,100584.09
2023-08-12T22:52:50.651Z,100578.84
2023-08-12T22:55:19.253Z,100579.59
2023-08-12T22:57:47.411Z,100575.34
2023-08-12T23:00:15.945Z,100575.06
2023-08-12T23:02:44.509Z,100582.81
2023-08-12T23:05:12.804Z,100594.97
2023-08-12T23:07:40.815Z,100597.41
2023-08-12T23:10:11.690Z,100598.19
2023-08-12T23:12:39.749Z,100599.81
2023-08-12T23:15:09.123Z,100595.78
2023-08-12T23:17:37.491Z,100597.69
2023-08-12T23:20:07.370Z,100607.19
2023-08-12T23:22:35.875Z,100606.72
2023-08-12T23:25:05.220Z,100611.59
2023-08-12T23:27:34.572Z,100610.53
2023-08-12T23:30:02.668Z,100606.78
2023-08-12T23:32:31.205Z,100620.81
2023-08-12T23:34:59.200Z,100614.81
2023-08-12T23:37:27.525Z,100612.22
2023-08-12T23:39:55.805Z,100619.69
2023-08-12T23:42:23.875Z,100613.13
2023-08-12T23:44:53.190Z,100616.97
2023-08-12T23:47:21.561Z,100619.72
2023-08-12T23:49:50.056Z,100619.94
2023-08-12T23:52:18.139Z,100623.28
2023-08-12T23:54:46.460Z,100619.84
2023-08-12T23:57:14.806Z,100637.44
2023-08-12T23:59:45.513Z,100623.69
